North Woodmere, New York
Current Conditions -  °F | °C
As of 8:51 PM on Monday 24 Nov 2014 (Local Time) from KJFK Reporting Station
Clear Clear  
Wind Chill: 58°   Ceiling: Unl
Heat Index: 58°   Visibility: 10mi
Dew Point: 53°   Wind: 14mph
Humidity: 84%   Direction: 200°SSW
Pressure: 29.73"   Gusts: NA
Location:  40.6532°N, 73.7131°W
Report Text: KJFK 250151Z 20012KT 10SM CLR 14/12 A2973 RMK AO2 SLP067 T01440117 $
Loading
Personal Weather Stations






























Interactive Weather Map New forecast layout! Learn more

10-Day Weather Forecast

Advertisements
Track Severe Weather on mobile